createdAt,value
2018-12-07T00:00:29.814Z,13.12
2018-12-07T00:02:58.456Z,13.11
2018-12-07T00:05:27.068Z,13.09
2018-12-07T00:07:56.876Z,13.10
2018-12-07T00:10:25.507Z,13.10
2018-12-07T00:12:54.143Z,13.11
2018-12-07T00:15:22.789Z,13.09
2018-12-07T00:17:51.427Z,13.13
2018-12-07T00:20:20.047Z,13.12
2018-12-07T00:22:48.674Z,13.12
2018-12-07T00:25:17.292Z,13.08
2018-12-07T00:27:45.907Z,13.13
2018-12-07T00:30:14.521Z,13.12
2018-12-07T00:32:43.138Z,13.13
2018-12-07T00:35:11.786Z,13.12
2018-12-07T00:37:40.402Z,13.13
2018-12-07T00:40:09.034Z,13.13
2018-12-07T00:42:37.658Z,13.15
2018-12-07T00:45:06.828Z,13.15
2018-12-07T00:47:35.494Z,13.16
2018-12-07T00:50:04.363Z,13.17
2018-12-07T00:52:32.982Z,13.18
2018-12-07T00:55:01.640Z,13.20
2018-12-07T00:57:30.265Z,13.21
2018-12-07T00:59:58.866Z,13.20
2018-12-07T01:02:27.506Z,13.21
2018-12-07T01:04:56.131Z,13.21
2018-12-07T01:07:24.756Z,13.23
2018-12-07T01:09:53.371Z,13.23
2018-12-07T01:12:21.992Z,13.24
2018-12-07T01:14:50.614Z,13.24
2018-12-07T01:17:19.242Z,13.24
2018-12-07T01:19:47.889Z,13.25
2018-12-07T01:22:16.499Z,13.26
2018-12-07T01:24:45.119Z,13.27
2018-12-07T01:27:13.729Z,13.27
2018-12-07T01:29:42.367Z,13.23
2018-12-07T01:32:11.004Z,13.27
2018-12-07T01:34:39.622Z,13.26
2018-12-07T01:37:08.235Z,13.27
2018-12-07T01:39:36.839Z,13.27
2018-12-07T01:42:05.713Z,13.27
2018-12-07T01:44:34.407Z,13.22
2018-12-07T01:47:03.061Z,13.24
2018-12-07T01:49:31.683Z,13.23
2018-12-07T01:52:00.290Z,13.21
2018-12-07T01:54:28.935Z,13.23
2018-12-07T01:56:57.554Z,13.21
2018-12-07T01:59:26.187Z,13.20
2018-12-07T02:01:54.777Z,13.20
2018-12-07T02:04:23.413Z,13.17
2018-12-07T02:06:52.042Z,13.18
2018-12-07T02:09:20.638Z,13.16
2018-12-07T02:11:49.254Z,13.14
2018-12-07T02:14:17.873Z,13.15
2018-12-07T02:16:46.485Z,13.14
2018-12-07T02:19:15.095Z,13.13
2018-12-07T02:21:43.715Z,13.11
2018-12-07T02:24:12.366Z,13.09
2018-12-07T02:26:40.990Z,13.08
2018-12-07T02:29:09.650Z,13.07
2018-12-07T02:31:38.282Z,13.07
2018-12-07T02:34:06.955Z,13.05
2018-12-07T02:36:35.594Z,13.04
2018-12-07T02:39:05.686Z,13.02
2018-12-07T02:41:34.344Z,13.02
2018-12-07T02:44:03.002Z,13.01
2018-12-07T02:46:31.647Z,13.01
2018-12-07T02:49:00.289Z,13.01
2018-12-07T02:51:28.914Z,13.00
2018-12-07T02:53:57.586Z,12.99
2018-12-07T02:56:26.257Z,12.98
2018-12-07T02:58:54.873Z,12.99
2018-12-07T03:01:23.570Z,12.97
2018-12-07T03:03:52.238Z,12.98
2018-12-07T03:06:20.910Z,12.97
2018-12-07T03:08:49.530Z,12.96
2018-12-07T03:11:18.177Z,12.95
2018-12-07T03:13:46.810Z,12.95
2018-12-07T03:16:15.566Z,12.95
2018-12-07T03:18:44.196Z,12.97
2018-12-07T03:21:12.859Z,12.95
2018-12-07T03:23:41.510Z,12.96
2018-12-07T03:26:10.163Z,12.96
2018-12-07T03:28:38.774Z,12.96
2018-12-07T03:31:07.411Z,12.95
2018-12-07T03:33:36.035Z,12.94
2018-12-07T03:36:05.050Z,12.94
2018-12-07T03:38:33.673Z,12.95
2018-12-07T03:41:02.438Z,12.94
2018-12-07T03:43:31.078Z,12.95
2018-12-07T03:45:59.712Z,12.94
2018-12-07T03:48:28.363Z,12.93
2018-12-07T03:50:57.014Z,12.93
2018-12-07T03:53:25.804Z,12.92
2018-12-07T03:55:55.720Z,12.91
2018-12-07T03:58:24.387Z,12.90
2018-12-07T04:00:53.031Z,12.88
2018-12-07T04:03:21.686Z,12.88
2018-12-07T04:05:50.335Z,12.87
2018-12-07T04:08:18.968Z,12.84
2018-12-07T04:10:47.635Z,12.84
2018-12-07T04:13:16.279Z,12.82
2018-12-07T04:15:44.934Z,12.79
2018-12-07T04:18:13.603Z,12.80
2018-12-07T04:20:42.250Z,12.79
2018-12-07T04:23:10.890Z,12.77
2018-12-07T04:25:39.524Z,12.77
2018-12-07T04:28:08.151Z,12.78
2018-12-07T04:30:36.795Z,12.75
2018-12-07T04:33:05.558Z,12.76
2018-12-07T04:35:34.239Z,12.77
2018-12-07T04:38:02.869Z,12.76
2018-12-07T04:40:31.538Z,12.75
2018-12-07T04:43:00.206Z,12.76
2018-12-07T04:45:28.847Z,12.74
2018-12-07T04:47:57.528Z,12.75
2018-12-07T04:50:26.187Z,12.75
2018-12-07T04:52:54.806Z,12.73
2018-12-07T04:55:23.446Z,12.73
2018-12-07T04:57:52.079Z,12.72
2018-12-07T05:00:20.752Z,12.72
2018-12-07T05:02:49.371Z,12.70
2018-12-07T05:05:18.165Z,12.69
2018-12-07T05:07:46.817Z,12.69
2018-12-07T05:10:15.463Z,12.69
2018-12-07T05:12:44.162Z,12.68
2018-12-07T05:15:13.353Z,12.68
2018-12-07T05:17:42.133Z,12.65
2018-12-07T05:20:10.759Z,12.64
2018-12-07T05:22:39.408Z,12.63
2018-12-07T05:25:09.637Z,12.61
2018-12-07T05:27:38.297Z,12.59
2018-12-07T05:30:07.966Z,12.58
2018-12-07T05:32:36.598Z,12.56
2018-12-07T05:35:05.638Z,12.55
2018-12-07T05:37:34.251Z,12.52
2018-12-07T05:40:02.882Z,12.51
2018-12-07T05:42:31.620Z,12.48
2018-12-07T05:45:00.322Z,12.36
2018-12-07T05:47:28.951Z,12.17
2018-12-07T05:49:57.548Z,12.07
2018-12-07T05:52:26.186Z,11.94
2018-12-07T05:54:54.835Z,11.83
2018-12-07T05:57:23.520Z,11.73
2018-12-07T05:59:52.137Z,11.65
2018-12-07T06:02:20.792Z,11.55
2018-12-07T06:04:50.398Z,11.50
2018-12-07T06:07:19.026Z,11.44
2018-12-07T06:09:47.915Z,11.40
2018-12-07T06:12:16.573Z,11.36
2018-12-07T06:14:45.218Z,11.31
2018-12-07T06:17:13.894Z,11.26
2018-12-07T06:19:42.520Z,11.21
2018-12-07T06:22:11.149Z,11.17
2018-12-07T06:24:39.763Z,11.12
2018-12-07T06:27:08.430Z,11.06
2018-12-07T06:29:37.130Z,11.03
2018-12-07T06:32:06.409Z,10.97
2018-12-07T06:34:35.063Z,10.93
2018-12-07T06:37:03.707Z,10.89
2018-12-07T06:39:32.338Z,10.85
2018-12-07T06:42:00.958Z,10.83
2018-12-07T06:44:29.593Z,10.80
2018-12-07T06:46:58.235Z,10.76
2018-12-07T06:49:26.868Z,10.75
2018-12-07T06:51:55.515Z,10.74
2018-12-07T06:54:24.162Z,10.73
2018-12-07T06:56:52.798Z,10.75
2018-12-07T06:59:21.442Z,10.73
2018-12-07T07:01:50.090Z,10.75
2018-12-07T07:04:18.722Z,10.73
2018-12-07T07:06:47.380Z,10.75
2018-12-07T07:09:16.085Z,10.77
2018-12-07T07:11:44.713Z,10.78
2018-12-07T07:14:13.362Z,10.79
2018-12-07T07:16:41.998Z,10.79
2018-12-07T07:19:10.642Z,10.82
2018-12-07T07:21:39.272Z,10.85
2018-12-07T07:24:07.922Z,10.85
2018-12-07T07:26:36.564Z,10.85
2018-12-07T07:29:05.474Z,10.86
2018-12-07T07:31:34.095Z,10.88
2018-12-07T07:34:02.706Z,10.86
2018-12-07T07:36:31.330Z,10.89
2018-12-07T07:38:59.958Z,10.90
2018-12-07T07:41:28.692Z,10.85
2018-12-07T07:43:57.391Z,10.78
2018-12-07T07:46:26.017Z,10.65
2018-12-07T07:48:55.103Z,10.51
2018-12-07T07:51:23.754Z,10.36
2018-12-07T07:53:52.379Z,10.28
2018-12-07T07:56:21.130Z,10.24
2018-12-07T07:58:49.783Z,10.21
2018-12-07T08:01:18.445Z,10.21
2018-12-07T08:03:47.094Z,10.19
2018-12-07T08:06:15.752Z,10.18
2018-12-07T08:08:44.386Z,10.16
2018-12-07T08:11:13.032Z,10.15
2018-12-07T08:13:41.699Z,10.13
2018-12-07T08:16:10.321Z,10.10
2018-12-07T08:18:38.944Z,10.10
2018-12-07T08:21:07.650Z,10.13
2018-12-07T08:23:36.302Z,10.15
2018-12-07T08:26:05.002Z,10.20
2018-12-07T08:28:33.654Z,10.25
2018-12-07T08:31:02.366Z,10.29
2018-12-07T08:33:31.035Z,10.32
2018-12-07T08:35:59.708Z,10.34
2018-12-07T08:38:28.343Z,10.38
2018-12-07T08:40:56.995Z,10.37
2018-12-07T08:43:25.702Z,10.41
2018-12-07T08:45:54.490Z,10.42
2018-12-07T08:48:23.116Z,10.42
2018-12-07T08:50:51.883Z,10.44
2018-12-07T08:53:20.546Z,10.45
2018-12-07T08:55:49.194Z,10.44
2018-12-07T08:58:17.826Z,10.44
2018-12-07T09:00:47.222Z,10.45
2018-12-07T09:03:15.861Z,10.45
2018-12-07T09:05:44.510Z,10.46
2018-12-07T09:08:15.321Z,10.49
2018-12-07T09:10:43.829Z,10.51
2018-12-07T09:13:12.570Z,10.54
2018-12-07T09:15:41.218Z,10.58
2018-12-07T09:18:09.847Z,10.63
2018-12-07T09:20:38.489Z,10.67
2018-12-07T09:23:07.144Z,10.74
2018-12-07T09:25:35.863Z,10.79
2018-12-07T09:28:04.615Z,10.84
2018-12-07T09:30:33.240Z,10.86
2018-12-07T09:33:01.869Z,10.88
2018-12-07T09:35:30.473Z,10.82
2018-12-07T09:37:59.114Z,10.55
2018-12-07T09:40:27.780Z,10.16
2018-12-07T09:42:56.413Z,9.82
2018-12-07T09:45:25.075Z,9.60
2018-12-07T09:47:53.742Z,9.44
2018-12-07T09:50:22.413Z,9.38
2018-12-07T09:52:51.046Z,9.41
2018-12-07T09:55:19.692Z,9.50
2018-12-07T09:57:48.346Z,9.58
2018-12-07T10:00:16.998Z,9.61
2018-12-07T10:02:45.655Z,9.59
2018-12-07T10:05:14.323Z,9.50
2018-12-07T10:07:43.006Z,9.37
2018-12-07T10:10:11.667Z,9.27
2018-12-07T10:12:40.866Z,9.21
2018-12-07T10:15:09.501Z,9.18
2018-12-07T10:17:38.143Z,9.18
2018-12-07T10:20:06.950Z,9.20
2018-12-07T10:22:35.593Z,9.24
2018-12-07T10:25:04.568Z,9.30
2018-12-07T10:27:33.243Z,9.35
2018-12-07T10:30:01.883Z,9.38
2018-12-07T10:32:30.569Z,9.44
2018-12-07T10:34:59.322Z,9.50
2018-12-07T10:37:27.984Z,9.56
2018-12-07T10:39:56.698Z,9.63
2018-12-07T10:42:25.383Z,9.70
2018-12-07T10:44:54.075Z,9.75
2018-12-07T10:47:22.752Z,9.78
2018-12-07T10:49:51.532Z,9.80
2018-12-07T10:52:20.170Z,9.84
2018-12-07T10:54:48.832Z,9.88
2018-12-07T10:57:17.477Z,9.93
2018-12-07T10:59:46.924Z,10.00
2018-12-07T11:02:20.872Z,10.07
2018-12-07T11:04:54.736Z,10.16
2018-12-07T11:07:28.606Z,10.26
2018-12-07T11:10:02.359Z,10.33
2018-12-07T11:12:36.073Z,10.37
2018-12-07T11:15:10.130Z,10.43
2018-12-07T11:17:43.815Z,10.47
2018-12-07T11:20:17.623Z,10.49
2018-12-07T11:22:51.477Z,10.50
2018-12-07T11:25:25.315Z,10.51
2018-12-07T11:27:59.082Z,10.51
2018-12-07T11:30:31.848Z,10.51
2018-12-07T11:33:05.744Z,10.53
2018-12-07T11:35:37.587Z,10.55
2018-12-07T11:38:06.255Z,10.60
2018-12-07T11:40:34.887Z,10.65
2018-12-07T11:43:03.553Z,10.69
2018-12-07T11:45:32.350Z,10.69
2018-12-07T11:48:01.118Z,10.66
2018-12-07T11:50:29.788Z,10.66
2018-12-07T11:52:58.547Z,10.67
2018-12-07T11:55:27.211Z,10.61
2018-12-07T11:57:55.898Z,10.49
2018-12-07T12:00:24.566Z,10.35
2018-12-07T12:02:54.216Z,10.25
2018-12-07T12:05:22.893Z,10.17
2018-12-07T12:07:51.535Z,10.02
2018-12-07T12:10:20.251Z,9.89
2018-12-07T12:12:49.490Z,9.80
2018-12-07T12:15:18.144Z,9.75
2018-12-07T12:17:46.814Z,9.70
2018-12-07T12:20:15.521Z,9.65
2018-12-07T12:22:44.167Z,9.62
2018-12-07T12:25:12.964Z,9.64
2018-12-07T12:27:41.609Z,9.65
2018-12-07T12:30:10.271Z,9.69
2018-12-07T12:32:38.924Z,9.71
2018-12-07T12:35:08.006Z,9.73
2018-12-07T12:37:36.663Z,9.75
2018-12-07T12:40:05.369Z,9.79
2018-12-07T12:42:34.007Z,9.84
2018-12-07T12:45:02.795Z,9.88
2018-12-07T12:47:31.761Z,9.94
2018-12-07T12:50:00.542Z,10.01
2018-12-07T12:52:29.395Z,10.08
2018-12-07T12:54:58.121Z,10.09
2018-12-07T12:57:26.886Z,10.14
2018-12-07T12:59:55.530Z,10.15
2018-12-07T13:02:24.274Z,10.17
2018-12-07T13:04:52.969Z,10.20
2018-12-07T13:07:21.631Z,10.21
2018-12-07T13:09:50.278Z,10.25
2018-12-07T13:12:18.934Z,10.30
2018-12-07T13:14:47.600Z,10.34
2018-12-07T13:17:16.276Z,10.33
2018-12-07T13:19:44.920Z,10.34
2018-12-07T13:22:13.578Z,10.29
2018-12-07T13:24:42.802Z,10.27
2018-12-07T13:27:12.774Z,10.21
2018-12-07T13:29:41.675Z,10.01
2018-12-07T13:32:10.291Z,9.75
2018-12-07T13:34:39.475Z,9.51
2018-12-07T13:37:08.128Z,9.39
2018-12-07T13:39:38.074Z,9.34
2018-12-07T13:42:08.417Z,9.31
2018-12-07T13:44:37.228Z,9.31
2018-12-07T13:47:16.873Z,9.29
2018-12-07T13:49:45.716Z,9.27
2018-12-07T13:52:14.605Z,9.25
2018-12-07T13:54:43.540Z,9.26
2018-12-07T13:57:12.981Z,9.29
2018-12-07T13:59:41.726Z,9.41
2018-12-07T14:02:10.530Z,9.53
2018-12-07T14:04:39.440Z,9.65
2018-12-07T14:07:08.349Z,9.75
2018-12-07T14:09:37.267Z,9.83
2018-12-07T14:12:05.935Z,9.81
2018-12-07T14:14:34.835Z,9.78
2018-12-07T14:17:03.607Z,9.75
2018-12-07T14:19:33.081Z,9.72
2018-12-07T14:22:02.511Z,9.71
2018-12-07T14:24:31.644Z,9.72
2018-12-07T14:27:00.449Z,9.73
2018-12-07T14:29:30.188Z,9.73
2018-12-07T14:31:59.023Z,9.74
2018-12-07T14:34:28.657Z,9.75
2018-12-07T14:36:57.366Z,9.74
2018-12-07T14:39:27.581Z,9.73
2018-12-07T14:41:57.081Z,9.71
2018-12-07T14:44:25.857Z,9.68
2018-12-07T14:46:55.005Z,9.66
2018-12-07T14:49:24.252Z,9.66
2018-12-07T14:51:53.111Z,9.65
2018-12-07T14:54:21.851Z,9.67
2018-12-07T14:56:50.620Z,9.68
2018-12-07T14:59:19.719Z,9.70
2018-12-07T15:01:48.937Z,9.70
2018-12-07T15:04:17.775Z,9.72
2018-12-07T15:06:46.727Z,9.71
2018-12-07T15:09:15.593Z,9.68
2018-12-07T15:11:44.668Z,9.66
2018-12-07T15:14:13.813Z,9.67
2018-12-07T15:16:43.152Z,9.64
2018-12-07T15:19:12.533Z,9.63
2018-12-07T15:21:42.227Z,9.65
2018-12-07T15:24:11.292Z,9.64
2018-12-07T15:26:41.421Z,9.65
2018-12-07T15:29:10.548Z,9.63
2018-12-07T15:31:39.511Z,9.59
2018-12-07T15:34:08.965Z,9.54
2018-12-07T15:36:37.891Z,9.41
2018-12-07T15:39:08.891Z,9.24
2018-12-07T15:41:38.651Z,9.15
2018-12-07T15:44:08.348Z,9.06
2018-12-07T15:46:37.689Z,9.03
2018-12-07T15:49:06.522Z,9.03
2018-12-07T15:51:35.983Z,9.05
2018-12-07T15:54:04.936Z,9.06
2018-12-07T15:56:34.696Z,9.06
2018-12-07T15:59:03.749Z,9.03
2018-12-07T16:01:32.489Z,9.00
2018-12-07T16:04:01.442Z,9.11
2018-12-07T16:06:30.504Z,9.07
2018-12-07T16:08:59.963Z,9.06
2018-12-07T16:11:28.860Z,9.09
2018-12-07T16:13:57.738Z,9.14
2018-12-07T16:16:27.977Z,9.22
2018-12-07T16:18:56.640Z,9.22
2018-12-07T16:21:25.345Z,9.16
2018-12-07T16:23:54.238Z,9.02
2018-12-07T16:26:23.021Z,8.96
2018-12-07T16:28:51.790Z,8.88
2018-12-07T16:31:20.627Z,8.81
2018-12-07T16:33:49.418Z,8.72
2018-12-07T16:36:18.217Z,8.70
2018-12-07T16:38:47.305Z,8.65
2018-12-07T16:41:16.261Z,8.62
2018-12-07T16:43:45.221Z,8.60
2018-12-07T16:46:13.952Z,8.60
2018-12-07T16:48:42.696Z,8.60
2018-12-07T16:51:11.630Z,8.62
2018-12-07T16:53:40.356Z,8.65
2018-12-07T16:56:09.034Z,8.68
2018-12-07T16:58:37.791Z,8.73
2018-12-07T17:01:06.527Z,8.79
2018-12-07T17:03:35.265Z,8.85
2018-12-07T17:06:04.127Z,8.92
2018-12-07T17:08:32.957Z,8.99
2018-12-07T17:11:01.600Z,9.05
2018-12-07T17:13:30.693Z,9.10
2018-12-07T17:15:59.388Z,9.15
2018-12-07T17:18:28.039Z,9.19
2018-12-07T17:20:56.934Z,9.22
2018-12-07T17:23:25.870Z,9.26
2018-12-07T17:25:54.689Z,9.29
2018-12-07T17:28:23.588Z,9.32
2018-12-07T17:30:52.325Z,9.37
2018-12-07T17:33:21.030Z,9.38
2018-12-07T17:35:49.688Z,9.34
2018-12-07T17:38:18.601Z,9.24
2018-12-07T17:40:47.535Z,9.19
2018-12-07T17:43:16.311Z,9.14
2018-12-07T17:45:45.016Z,9.15
2018-12-07T17:48:15.620Z,9.19
2018-12-07T17:50:44.471Z,9.24
2018-12-07T17:53:13.264Z,9.30
2018-12-07T17:55:42.213Z,9.35
2018-12-07T17:58:11.039Z,9.41
2018-12-07T18:00:40.432Z,9.48
2018-12-07T18:03:09.194Z,9.49
2018-12-07T18:05:38.243Z,9.52
2018-12-07T18:08:06.997Z,9.52
2018-12-07T18:10:35.714Z,9.53
2018-12-07T18:13:04.684Z,9.53
2018-12-07T18:15:33.651Z,9.51
2018-12-07T18:18:02.485Z,9.51
2018-12-07T18:20:31.284Z,9.49
2018-12-07T18:23:00.100Z,9.46
2018-12-07T18:25:29.077Z,9.48
2018-12-07T18:27:57.743Z,9.52
2018-12-07T18:30:26.363Z,9.57
2018-12-07T18:32:55.106Z,9.61
2018-12-07T18:35:23.731Z,9.64
2018-12-07T18:37:52.584Z,9.61
2018-12-07T18:40:21.346Z,9.55
2018-12-07T18:42:50.214Z,9.20
2018-12-07T18:45:19.320Z,8.78
2018-12-07T18:47:48.989Z,8.51
2018-12-07T18:50:17.921Z,8.34
2018-12-07T18:52:46.805Z,8.25
2018-12-07T18:55:15.873Z,8.21
2018-12-07T18:57:44.978Z,8.21
2018-12-07T19:00:13.925Z,8.24
2018-12-07T19:02:43.673Z,8.28
2018-12-07T19:05:12.486Z,8.34
2018-12-07T19:07:41.422Z,8.41
2018-12-07T19:10:10.320Z,8.46
2018-12-07T19:12:39.106Z,8.50
2018-12-07T19:15:08.803Z,8.55
2018-12-07T19:17:39.701Z,8.60
2018-12-07T19:20:09.726Z,8.67
2018-12-07T19:22:38.682Z,8.72
2018-12-07T19:25:08.380Z,8.82
2018-12-07T19:27:37.338Z,8.90
2018-12-07T19:30:14.527Z,8.98
2018-12-07T19:32:39.449Z,9.07
2018-12-07T19:35:08.261Z,9.12
2018-12-07T19:37:37.295Z,9.13
2018-12-07T19:40:06.863Z,9.17
2018-12-07T19:42:35.549Z,9.20
2018-12-07T19:45:05.117Z,9.18
2018-12-07T19:47:33.891Z,9.12
2018-12-07T19:50:03.624Z,9.07
2018-12-07T19:52:32.727Z,9.02
2018-12-07T19:55:01.792Z,9.03
2018-12-07T19:57:30.556Z,9.01
2018-12-07T19:59:59.225Z,8.98
2018-12-07T20:02:27.991Z,8.92
2018-12-07T20:04:56.881Z,8.78
2018-12-07T20:07:25.651Z,8.64
2018-12-07T20:09:54.521Z,8.52
2018-12-07T20:12:23.277Z,8.48
2018-12-07T20:14:52.022Z,8.48
2018-12-07T20:17:20.923Z,8.50
2018-12-07T20:19:49.837Z,8.55
2018-12-07T20:22:19.306Z,8.60
2018-12-07T20:24:48.137Z,8.66
2018-12-07T20:27:16.944Z,8.73
2018-12-07T20:29:45.647Z,8.79
2018-12-07T20:32:14.458Z,8.85
2018-12-07T20:34:43.200Z,8.90
2018-12-07T20:37:12.056Z,8.96
2018-12-07T20:39:41.167Z,8.97
2018-12-07T20:42:10.196Z,9.00
2018-12-07T20:44:38.971Z,9.06
2018-12-07T20:47:08.051Z,9.11
2018-12-07T20:49:36.941Z,9.12
2018-12-07T20:52:06.135Z,9.15
2018-12-07T20:54:35.090Z,9.19
2018-12-07T20:57:03.766Z,9.23
2018-12-07T20:59:32.411Z,9.11
2018-12-07T21:02:01.147Z,8.97
2018-12-07T21:04:39.973Z,8.89
2018-12-07T21:07:43.718Z,8.86
2018-12-07T21:11:22.730Z,8.88
2018-12-07T21:14:59.004Z,8.90
2018-12-07T21:17:34.308Z,8.88
2018-12-07T21:20:18.700Z,8.89
2018-12-07T21:22:47.468Z,8.90
2018-12-07T21:25:16.333Z,8.92
2018-12-07T21:27:45.282Z,8.95
2018-12-07T21:33:12.888Z,9.02
2018-12-07T21:36:32.662Z,9.05
2018-12-07T21:39:01.381Z,9.11
2018-12-07T21:41:30.223Z,9.17
2018-12-07T21:43:59.150Z,9.21
2018-12-07T21:46:28.140Z,9.25
2018-12-07T21:48:57.336Z,9.28
2018-12-07T21:51:38.129Z,9.31
2018-12-07T21:54:06.844Z,9.34
2018-12-07T21:56:35.578Z,9.37
2018-12-07T21:59:04.817Z,9.41
2018-12-07T22:01:33.691Z,9.42
2018-12-07T22:04:02.448Z,9.44
2018-12-07T22:06:31.966Z,9.46
2018-12-07T22:09:01.670Z,9.50
2018-12-07T22:11:30.397Z,9.53
2018-12-07T22:14:00.013Z,9.55
2018-12-07T22:16:28.743Z,9.57
2018-12-07T22:18:57.494Z,9.56
2018-12-07T22:21:26.401Z,9.56
2018-12-07T22:23:55.310Z,9.59
2018-12-07T22:26:24.463Z,9.64
2018-12-07T22:28:53.333Z,9.68
2018-12-07T22:31:22.080Z,9.71
2018-12-07T22:33:50.872Z,9.73
2018-12-07T22:36:19.840Z,9.76
2018-12-07T22:38:48.678Z,9.77
2018-12-07T22:41:17.381Z,9.73
2018-12-07T22:43:46.042Z,9.70
2018-12-07T22:46:14.934Z,9.66
2018-12-07T22:48:45.667Z,9.63
2018-12-07T22:51:14.402Z,9.63
2018-12-07T22:53:43.089Z,9.64
2018-12-07T22:56:11.757Z,9.65
2018-12-07T22:58:40.379Z,9.67
2018-12-07T23:01:09.879Z,9.71
2018-12-07T23:03:38.533Z,9.74
2018-12-07T23:06:07.218Z,9.75
2018-12-07T23:08:35.955Z,9.80
2018-12-07T23:11:04.618Z,9.80
2018-12-07T23:13:33.294Z,9.77
2018-12-07T23:16:01.951Z,9.72
2018-12-07T23:18:30.640Z,9.71
2018-12-07T23:20:59.258Z,9.71
2018-12-07T23:23:27.901Z,9.71
2018-12-07T23:25:56.545Z,9.72
2018-12-07T23:28:25.249Z,9.72
2018-12-07T23:30:53.879Z,9.72
2018-12-07T23:33:22.514Z,9.74
2018-12-07T23:35:51.151Z,9.77
2018-12-07T23:38:19.763Z,9.80
2018-12-07T23:40:48.393Z,9.81
2018-12-07T23:43:17.156Z,9.80
2018-12-07T23:45:45.778Z,9.80
2018-12-07T23:48:14.443Z,9.79
2018-12-07T23:50:43.105Z,9.78
2018-12-07T23:53:11.734Z,9.76
2018-12-07T23:55:40.404Z,9.76
2018-12-07T23:58:09.069Z,9.76
